sensor_id;sensor_type;location;lat;lon;timestamp;pressure;altitude;pressure_sealevel;temperature;humidity
13478;BME280;12598;62.382;17.344;2022-10-03T00:00:34;100952.56;;;23.61;30.61
13478;BME280;12598;62.382;17.344;2022-10-03T00:09:13;100912.22;;;23.37;30.23
13478;BME280;12598;62.382;17.344;2022-10-03T00:13:18;100942.81;;;23.52;30.46
13478;BME280;12598;62.382;17.344;2022-10-03T00:15:53;100934.13;;;23.42;30.24
13478;BME280;12598;62.382;17.344;2022-10-03T00:17:11;100933.47;;;23.40;30.26
13478;BME280;12598;62.382;17.344;2022-10-03T00:18:44;100959.16;;;23.58;30.67
13478;BME280;12598;62.382;17.344;2022-10-03T00:19:57;100969.97;;;23.58;30.10
13478;BME280;12598;62.382;17.344;2022-10-03T00:22:43;100969.28;;;23.56;30.75
13478;BME280;12598;62.382;17.344;2022-10-03T00:24:05;100902.41;;;23.13;30.22
13478;BME280;12598;62.382;17.344;2022-10-03T00:26:21;100970.16;;;23.49;30.17
13478;BME280;12598;62.382;17.344;2022-10-03T00:28:55;100973.06;;;23.47;30.32
13478;BME280;12598;62.382;17.344;2022-10-03T00:31:13;100871.34;;;22.87;30.44
13478;BME280;12598;62.382;17.344;2022-10-03T00:35:17;100953.22;;;23.40;30.66
13478;BME280;12598;62.382;17.344;2022-10-03T00:49:56;100933.56;;;23.24;29.98
13478;BME280;12598;62.382;17.344;2022-10-03T00:52:45;100946.16;;;23.31;30.51
13478;BME280;12598;62.382;17.344;2022-10-03T01:00:02;100977.50;;;23.40;30.41
13478;BME280;12598;62.382;17.344;2022-10-03T01:01:47;100979.28;;;23.48;30.31
13478;BME280;12598;62.382;17.344;2022-10-03T01:12:47;100982.91;;;23.32;30.75
13478;BME280;12598;62.382;17.344;2022-10-03T01:15:27;100981.22;;;23.31;30.51
13478;BME280;12598;62.382;17.344;2022-10-03T01:17:00;100979.38;;;23.32;30.40
13478;BME280;12598;62.382;17.344;2022-10-03T01:24:50;100977.56;;;23.24;30.84
13478;BME280;12598;62.382;17.344;2022-10-03T01:27:30;100954.03;;;23.10;30.59
13478;BME280;12598;62.382;17.344;2022-10-03T01:29:01;100892.97;;;22.71;30.36
13478;BME280;12598;62.382;17.344;2022-10-03T01:30:22;100977.09;;;23.21;30.68
13478;BME280;12598;62.382;17.344;2022-10-03T01:31:52;100984.63;;;23.25;30.78
13478;BME280;12598;62.382;17.344;2022-10-03T01:33:05;100963.94;;;23.18;30.07
13478;BME280;12598;62.382;17.344;2022-10-03T01:35:29;100984.50;;;23.19;30.34
13478;BME280;12598;62.382;17.344;2022-10-03T01:36:42;100975.72;;;23.17;30.35
13478;BME280;12598;62.382;17.344;2022-10-03T01:38:04;100988.22;;;23.18;30.68
13478;BME280;12598;62.382;17.344;2022-10-03T01:39:52;100984.97;;;23.22;30.07
13478;BME280;12598;62.382;17.344;2022-10-03T01:41:05;100982.13;;;23.24;30.23
13478;BME280;12598;62.382;17.344;2022-10-03T01:42:36;100913.31;;;22.81;29.98
13478;BME280;12598;62.382;17.344;2022-10-03T01:44:59;100979.28;;;23.17;30.73
13478;BME280;12598;62.382;17.344;2022-10-03T01:46:25;100927.47;;;22.83;30.62
13478;BME280;12598;62.382;17.344;2022-10-03T01:47:42;100919.91;;;22.79;30.53
13478;BME280;12598;62.382;17.344;2022-10-03T01:52:09;100991.03;;;23.24;29.86
13478;BME280;12598;62.382;17.344;2022-10-03T01:54:42;100985.69;;;23.16;30.05
13478;BME280;12598;62.382;17.344;2022-10-03T01:57:15;100965.84;;;23.01;30.50
13478;BME280;12598;62.382;17.344;2022-10-03T01:58:30;100984.38;;;23.04;30.02
13478;BME280;12598;62.382;17.344;2022-10-03T02:01:07;100992.47;;;23.12;30.24
13478;BME280;12598;62.382;17.344;2022-10-03T02:02:35;100986.72;;;23.15;30.00
13478;BME280;12598;62.382;17.344;2022-10-03T02:03:54;100994.13;;;23.13;30.02
13478;BME280;12598;62.382;17.344;2022-10-03T02:06:31;100990.78;;;23.11;30.58
13478;BME280;12598;62.382;17.344;2022-10-03T02:08:04;100993.47;;;23.11;30.60
13478;BME280;12598;62.382;17.344;2022-10-03T02:13:47;101002.22;;;23.13;30.19
13478;BME280;12598;62.382;17.344;2022-10-03T02:17:05;100979.63;;;23.06;30.34
13478;BME280;12598;62.382;17.344;2022-10-03T02:19:27;100992.94;;;23.08;30.22
13478;BME280;12598;62.382;17.344;2022-10-03T02:20:40;100962.88;;;22.80;30.01
13478;BME280;12598;62.382;17.344;2022-10-03T02:21:49;100922.31;;;22.58;30.31
13478;BME280;12598;62.382;17.344;2022-10-03T02:22:54;100996.53;;;23.00;30.09
13478;BME280;12598;62.382;17.344;2022-10-03T02:25:26;100978.34;;;22.86;30.11
13478;BME280;12598;62.382;17.344;2022-10-03T02:30:13;100994.81;;;23.07;30.16
13478;BME280;12598;62.382;17.344;2022-10-03T02:40:24;100999.53;;;23.05;30.67
13478;BME280;12598;62.382;17.344;2022-10-03T02:53:00;101010.34;;;22.97;29.94
13478;BME280;12598;62.382;17.344;2022-10-03T02:54:55;101015.88;;;23.04;30.48
13478;BME280;12598;62.382;17.344;2022-10-03T02:59:55;101024.66;;;22.98;29.95
13478;BME280;12598;62.382;17.344;2022-10-03T03:08:35;101014.75;;;22.98;30.08
13478;BME280;12598;62.382;17.344;2022-10-03T03:10:02;101018.75;;;22.94;30.56
13478;BME280;12598;62.382;17.344;2022-10-03T03:11:32;100992.53;;;22.80;30.19
13478;BME280;12598;62.382;17.344;2022-10-03T03:17:17;101015.06;;;22.95;30.55
13478;BME280;12598;62.382;17.344;2022-10-03T03:24:15;101017.44;;;22.90;30.43
13478;BME280;12598;62.382;17.344;2022-10-03T03:26:25;101035.97;;;22.93;30.66
13478;BME280;12598;62.382;17.344;2022-10-03T03:29:44;101036.31;;;22.98;30.37
13478;BME280;12598;62.382;17.344;2022-10-03T03:36:05;101037.16;;;22.91;29.68
13478;BME280;12598;62.382;17.344;2022-10-03T03:38:31;100978.44;;;22.54;29.87
13478;BME280;12598;62.382;17.344;2022-10-03T03:43:00;101033.25;;;22.93;30.39
13478;BME280;12598;62.382;17.344;2022-10-03T03:47:53;101036.66;;;22.87;29.90
13478;BME280;12598;62.382;17.344;2022-10-03T03:50:01;101025.56;;;22.74;30.38
13478;BME280;12598;62.382;17.344;2022-10-03T03:52:56;101044.75;;;22.87;29.89
13478;BME280;12598;62.382;17.344;2022-10-03T03:54:37;100996.44;;;22.62;30.09
13478;BME280;12598;62.382;17.344;2022-10-03T03:59:01;101035.97;;;22.85;29.87
13478;BME280;12598;62.382;17.344;2022-10-03T04:00:14;101044.09;;;22.77;29.65
13478;BME280;12598;62.382;17.344;2022-10-03T04:02:57;101044.75;;;22.79;30.31
13478;BME280;12598;62.382;17.344;2022-10-03T04:05:37;101041.72;;;22.82;30.22
13478;BME280;12598;62.382;17.344;2022-10-03T04:06:55;101005.53;;;22.61;30.25
13478;BME280;12598;62.382;17.344;2022-10-03T04:08:38;101040.38;;;22.78;29.80
13478;BME280;12598;62.382;17.344;2022-10-03T04:11:33;101014.47;;;22.69;30.18
13478;BME280;12598;62.382;17.344;2022-10-03T04:14:22;101037.34;;;22.81;29.56
13478;BME280;12598;62.382;17.344;2022-10-03T04:16:42;101031.63;;;22.76;29.67
13478;BME280;12598;62.382;17.344;2022-10-03T04:22:24;100993.09;;;22.44;30.10
13478;BME280;12598;62.382;17.344;2022-10-03T04:32:59;101050.19;;;22.71;30.11
13478;BME280;12598;62.382;17.344;2022-10-03T04:41:26;101058.06;;;22.73;29.55
13478;BME280;12598;62.382;17.344;2022-10-03T04:42:51;101058.94;;;22.73;29.94
13478;BME280;12598;62.382;17.344;2022-10-03T04:46:29;100993.75;;;22.22;30.26
13478;BME280;12598;62.382;17.344;2022-10-03T04:47:49;101064.34;;;22.65;29.73
13478;BME280;12598;62.382;17.344;2022-10-03T04:53:21;101074.59;;;22.70;29.85
13478;BME280;12598;62.382;17.344;2022-10-03T04:54:46;101075.59;;;22.69;29.61
13478;BME280;12598;62.382;17.344;2022-10-03T04:58:36;101076.97;;;22.65;30.43
13478;BME280;12598;62.382;17.344;2022-10-03T04:59:46;101078.16;;;22.62;30.02
13478;BME280;12598;62.382;17.344;2022-10-03T05:06:30;101087.59;;;22.66;29.59
13478;BME280;12598;62.382;17.344;2022-10-03T05:07:46;101087.59;;;22.66;30.37
13478;BME280;12598;62.382;17.344;2022-10-03T05:09:01;101048.50;;;22.39;29.96
13478;BME280;12598;62.382;17.344;2022-10-03T05:10:39;101089.09;;;22.69;29.70
13478;BME280;12598;62.382;17.344;2022-10-03T05:11:56;101055.41;;;22.49;30.16
13478;BME280;12598;62.382;17.344;2022-10-03T05:13:15;101013.44;;;22.31;30.20
13478;BME280;12598;62.382;17.344;2022-10-03T05:17:01;101098.88;;;22.78;29.88
13478;BME280;12598;62.382;17.344;2022-10-03T05:18:18;101088.56;;;22.81;29.91
13478;BME280;12598;62.382;17.344;2022-10-03T05:19:42;101094.63;;;22.83;30.38
13478;BME280;12598;62.382;17.344;2022-10-03T05:22:03;101071.41;;;22.74;29.66
13478;BME280;12598;62.382;17.344;2022-10-03T05:23:23;101063.97;;;22.76;29.70
13478;BME280;12598;62.382;17.344;2022-10-03T05:28:11;101063.75;;;23.02;29.38
13478;BME280;12598;62.382;17.344;2022-10-03T05:29:35;101090.56;;;23.19;29.31
13478;BME280;12598;62.382;17.344;2022-10-03T05:32:45;101089.00;;;23.33;28.82
13478;BME280;12598;62.382;17.344;2022-10-03T05:34:09;100987.47;;;22.77;29.03
13478;BME280;12598;62.382;17.344;2022-10-03T05:36:34;101047.06;;;23.14;28.79
13478;BME280;12598;62.382;17.344;2022-10-03T05:38:07;101081.38;;;23.44;28.73
13478;BME280;12598;62.382;17.344;2022-10-03T05:40:28;101022.59;;;23.16;28.69
13478;BME280;12598;62.382;17.344;2022-10-03T05:41:32;101086.44;;;23.47;28.64
13478;BME280;12598;62.382;17.344;2022-10-03T05:44:14;101030.84;;;23.22;28.66
13478;BME280;12598;62.382;17.344;2022-10-03T05:52:21;101088.31;;;23.77;28.18
13478;BME280;12598;62.382;17.344;2022-10-03T05:56:07;101085.44;;;23.79;28.65
13478;BME280;12598;62.382;17.344;2022-10-03T06:04:09;101078.03;;;23.81;27.91
13478;BME280;12598;62.382;17.344;2022-10-03T06:06:55;101083.69;;;23.94;28.25
13478;BME280;12598;62.382;17.344;2022-10-03T06:09:05;101080.31;;;23.92;28.03
13478;BME280;12598;62.382;17.344;2022-10-03T06:14:43;101061.31;;;23.85;27.87
13478;BME280;12598;62.382;17.344;2022-10-03T06:17:20;101083.47;;;24.03;28.05
13478;BME280;12598;62.382;17.344;2022-10-03T06:19:51;101088.56;;;23.98;28.04
13478;BME280;12598;62.382;17.344;2022-10-03T06:24:13;101093.78;;;24.00;28.34
13478;BME280;12598;62.382;17.344;2022-10-03T06:34:57;101110.19;;;23.98;28.08
13478;BME280;12598;62.382;17.344;2022-10-03T06:42:19;101127.56;;;24.04;27.96
13478;BME280;12598;62.382;17.344;2022-10-03T06:44:00;101098.56;;;23.90;28.18
13478;BME280;12598;62.382;17.344;2022-10-03T06:50:26;101131.59;;;24.00;28.29
13478;BME280;12598;62.382;17.344;2022-10-03T06:54:15;101142.59;;;23.98;28.52
13478;BME280;12598;62.382;17.344;2022-10-03T06:56:05;101136.66;;;24.02;28.25
13478;BME280;12598;62.382;17.344;2022-10-03T06:57:49;101136.97;;;24.08;28.18
13478;BME280;12598;62.382;17.344;2022-10-03T07:03:35;101142.94;;;23.95;28.47
13478;BME280;12598;62.382;17.344;2022-10-03T07:09:02;101147.81;;;24.00;28.74
13478;BME280;12598;62.382;17.344;2022-10-03T07:10:22;101149.84;;;24.06;28.34
13478;BME280;12598;62.382;17.344;2022-10-03T07:15:49;101148.97;;;24.05;28.01
13478;BME280;12598;62.382;17.344;2022-10-03T07:28:40;101150.50;;;24.08;28.67
13478;BME280;12598;62.382;17.344;2022-10-03T07:31:27;101147.94;;;24.06;28.44
13478;BME280;12598;62.382;17.344;2022-10-03T07:35:43;101160.44;;;24.07;28.68
13478;BME280;12598;62.382;17.344;2022-10-03T07:40:22;101160.94;;;24.10;28.19
13478;BME280;12598;62.382;17.344;2022-10-03T07:45:44;101163.66;;;24.02;28.74
13478;BME280;12598;62.382;17.344;2022-10-03T07:50:48;101170.59;;;24.05;28.70
13478;BME280;12598;62.382;17.344;2022-10-03T07:53:08;101170.22;;;24.08;28.81
13478;BME280;12598;62.382;17.344;2022-10-03T08:00:07;101167.72;;;24.07;28.32
13478;BME280;12598;62.382;17.344;2022-10-03T08:01:44;101170.91;;;24.10;28.98
13478;BME280;12598;62.382;17.344;2022-10-03T08:06:41;101174.47;;;24.02;28.68
13478;BME280;12598;62.382;17.344;2022-10-03T08:12:30;101179.19;;;24.08;29.17
13478;BME280;12598;62.382;17.344;2022-10-03T08:18:21;101183.44;;;24.03;28.83
13478;BME280;12598;62.382;17.344;2022-10-03T08:22:48;101180.69;;;24.11;28.39
13478;BME280;12598;62.382;17.344;2022-10-03T08:24:07;101187.97;;;24.10;28.59
13478;BME280;12598;62.382;17.344;2022-10-03T08:29:19;101148.88;;;23.91;28.79
13478;BME280;12598;62.382;17.344;2022-10-03T08:39:20;101188.44;;;24.14;29.28
13478;BME280;12598;62.382;17.344;2022-10-03T08:45:45;101158.16;;;23.96;29.30
13478;BME280;12598;62.382;17.344;2022-10-03T08:47:26;101193.13;;;24.20;29.44
13478;BME280;12598;62.382;17.344;2022-10-03T08:51:38;101185.38;;;24.17;29.57
13478;BME280;12598;62.382;17.344;2022-10-03T08:56:23;101188.38;;;24.22;29.32
13478;BME280;12598;62.382;17.344;2022-10-03T08:59:03;101115.53;;;23.68;29.22
13478;BME280;12598;62.382;17.344;2022-10-03T09:00:29;101158.97;;;23.97;29.16
13478;BME280;12598;62.382;17.344;2022-10-03T09:02:42;101195.16;;;24.18;29.76
13478;BME280;12598;62.382;17.344;2022-10-03T09:08:59;101154.13;;;23.92;29.80
13478;BME280;12598;62.382;17.344;2022-10-03T09:16:58;101197.56;;;24.13;29.49
13478;BME280;12598;62.382;17.344;2022-10-03T09:22:11;101198.53;;;24.20;29.90
13478;BME280;12598;62.382;17.344;2022-10-03T09:23:28;101194.34;;;24.17;29.67
13478;BME280;12598;62.382;17.344;2022-10-03T09:26:32;101199.88;;;24.24;30.12
13478;BME280;12598;62.382;17.344;2022-10-03T09:29:28;101205.75;;;24.27;29.49
13478;BME280;12598;62.382;17.344;2022-10-03T09:30:45;101203.25;;;24.26;30.23
13478;BME280;12598;62.382;17.344;2022-10-03T09:33:30;101206.13;;;24.24;30.02
13478;BME280;12598;62.382;17.344;2022-10-03T09:43:26;101133.88;;;23.88;29.99
13478;BME280;12598;62.382;17.344;2022-10-03T09:46:31;101203.88;;;24.36;29.89
13478;BME280;12598;62.382;17.344;2022-10-03T09:48:17;101196.44;;;24.38;29.96
13478;BME280;12598;62.382;17.344;2022-10-03T09:50:57;101183.78;;;24.30;30.13
13478;BME280;12598;62.382;17.344;2022-10-03T10:00:18;101149.16;;;24.04;30.67
13478;BME280;12598;62.382;17.344;2022-10-03T10:04:19;101214.63;;;24.44;30.43
13478;BME280;12598;62.382;17.344;2022-10-03T10:29:28;101233.84;;;24.57;30.71
13478;BME280;12598;62.382;17.344;2022-10-03T10:38:03;101239.19;;;24.65;30.82
13478;BME280;12598;62.382;17.344;2022-10-03T10:43:40;101237.66;;;24.70;30.47
13478;BME280;12598;62.382;17.344;2022-10-03T10:49:25;101231.56;;;24.68;30.69
13478;BME280;12598;62.382;17.344;2022-10-03T10:58:00;101234.47;;;24.67;30.63
13478;BME280;12598;62.382;17.344;2022-10-03T11:12:35;101242.53;;;24.75;30.76
13478;BME280;12598;62.382;17.344;2022-10-03T11:30:16;101235.59;;;24.72;30.94
13478;BME280;12598;62.382;17.344;2022-10-03T11:31:45;101231.56;;;24.68;30.40
13478;BME280;12598;62.382;17.344;2022-10-03T11:38:21;101253.72;;;24.72;30.38
13478;BME280;12598;62.382;17.344;2022-10-03T11:41:04;101253.72;;;24.72;30.73
13478;BME280;12598;62.382;17.344;2022-10-03T11:44:55;101258.94;;;24.73;30.59
13478;BME280;12598;62.382;17.344;2022-10-03T11:52:16;101264.63;;;24.78;30.56
13478;BME280;12598;62.382;17.344;2022-10-03T11:53:37;101261.28;;;24.76;30.45
13478;BME280;12598;62.382;17.344;2022-10-03T11:54:44;101236.84;;;24.62;30.24
13478;BME280;12598;62.382;17.344;2022-10-03T12:04:16;101265.97;;;24.82;30.67
13478;BME280;12598;62.382;17.344;2022-10-03T12:06:50;101270.03;;;24.78;30.53
13478;BME280;12598;62.382;17.344;2022-10-03T12:08:28;101263.44;;;24.81;30.43
13478;BME280;12598;62.382;17.344;2022-10-03T12:11:47;101233.78;;;24.65;30.72
13478;BME280;12598;62.382;17.344;2022-10-03T12:12:55;101230.31;;;24.56;30.96
13478;BME280;12598;62.382;17.344;2022-10-03T12:18:08;101197.38;;;24.45;30.80
13478;BME280;12598;62.382;17.344;2022-10-03T12:19:18;101268.00;;;24.80;30.91
13478;BME280;12598;62.382;17.344;2022-10-03T12:20:36;101237.56;;;24.56;30.87
13478;BME280;12598;62.382;17.344;2022-10-03T12:21:58;101236.84;;;24.62;30.67
13478;BME280;12598;62.382;17.344;2022-10-03T12:23:15;101237.22;;;24.59;30.51
13478;BME280;12598;62.382;17.344;2022-10-03T12:24:26;101281.72;;;24.79;30.60
13478;BME280;12598;62.382;17.344;2022-10-03T12:25:31;101245.50;;;24.57;30.85
13478;BME280;12598;62.382;17.344;2022-10-03T12:26:52;101272.75;;;24.78;30.47
13478;BME280;12598;62.382;17.344;2022-10-03T12:29:02;101283.78;;;24.77;31.01
13478;BME280;12598;62.382;17.344;2022-10-03T12:30:12;101275.00;;;24.75;30.67
13478;BME280;12598;62.382;17.344;2022-10-03T12:31:19;101272.09;;;24.76;30.50
13478;BME280;12598;62.382;17.344;2022-10-03T12:32:37;101280.41;;;24.75;30.82
13478;BME280;12598;62.382;17.344;2022-10-03T12:35:00;101271.28;;;24.76;30.45
13478;BME280;12598;62.382;17.344;2022-10-03T12:36:11;101272.75;;;24.78;30.89
13478;BME280;12598;62.382;17.344;2022-10-03T12:38:45;101245.16;;;24.60;30.75
13478;BME280;12598;62.382;17.344;2022-10-03T12:40:12;101251.69;;;24.66;30.36
13478;BME280;12598;62.382;17.344;2022-10-03T12:41:38;101228.31;;;24.50;30.66
13478;BME280;12598;62.382;17.344;2022-10-03T12:42:57;101270.03;;;24.78;30.60
13478;BME280;12598;62.382;17.344;2022-10-03T12:47:16;101258.41;;;24.78;30.21
13478;BME280;12598;62.382;17.344;2022-10-03T12:48:49;101262.13;;;24.77;30.05
13478;BME280;12598;62.382;17.344;2022-10-03T12:50:22;101278.59;;;24.90;30.30
13478;BME280;12598;62.382;17.344;2022-10-03T12:51:46;101282.16;;;24.90;30.45
13478;BME280;12598;62.382;17.344;2022-10-03T12:55:25;101239.56;;;24.62;30.40
13478;BME280;12598;62.382;17.344;2022-10-03T13:03:02;101276.25;;;24.87;30.28
13478;BME280;12598;62.382;17.344;2022-10-03T13:05:34;101278.97;;;24.87;30.31
13478;BME280;12598;62.382;17.344;2022-10-03T13:10:56;101252.03;;;24.71;30.31
13478;BME280;12598;62.382;17.344;2022-10-03T13:12:12;101277.94;;;24.88;30.82
13478;BME280;12598;62.382;17.344;2022-10-03T13:13:32;101233.84;;;24.57;30.46
13478;BME280;12598;62.382;17.344;2022-10-03T13:16:16;101279.47;;;24.90;30.48
13478;BME280;12598;62.382;17.344;2022-10-03T13:17:33;101226.38;;;24.59;30.29
13478;BME280;12598;62.382;17.344;2022-10-03T13:18:46;101234.47;;;24.67;30.23
13478;BME280;12598;62.382;17.344;2022-10-03T13:20:05;101248.31;;;24.72;30.66
13478;BME280;12598;62.382;17.344;2022-10-03T13:21:18;101281.50;;;24.88;30.49
13478;BME280;12598;62.382;17.344;2022-10-03T13:24:05;101284.88;;;24.90;30.40
13478;BME280;12598;62.382;17.344;2022-10-03T13:25:19;101218.34;;;24.51;30.60
13478;BME280;12598;62.382;17.344;2022-10-03T13:26:45;101276.75;;;24.90;30.42
13478;BME280;12598;62.382;17.344;2022-10-03T13:28:06;101261.78;;;24.80;30.65
13478;BME280;12598;62.382;17.344;2022-10-03T13:29:20;101234.81;;;24.64;30.41
13478;BME280;12598;62.382;17.344;2022-10-03T13:30:30;101244.97;;;24.62;30.66
13478;BME280;12598;62.382;17.344;2022-10-03T13:31:33;101201.84;;;24.38;30.68
13478;BME280;12598;62.382;17.344;2022-10-03T13:32:55;101278.97;;;24.87;30.43
13478;BME280;12598;62.382;17.344;2022-10-03T13:34:06;101279.78;;;24.87;30.39
13478;BME280;12598;62.382;17.344;2022-10-03T13:36:50;101246.97;;;24.68;30.55
13478;BME280;12598;62.382;17.344;2022-10-03T13:39:34;101228.13;;;24.52;30.44
13478;BME280;12598;62.382;17.344;2022-10-03T13:40:43;101232.28;;;24.62;30.13
13478;BME280;12598;62.382;17.344;2022-10-03T13:42:17;101275.72;;;24.91;30.18
13478;BME280;12598;62.382;17.344;2022-10-03T13:43:26;101273.19;;;24.90;30.43
13478;BME280;12598;62.382;17.344;2022-10-03T13:44:37;101231.44;;;24.62;30.14
13478;BME280;12598;62.382;17.344;2022-10-03T13:45:42;101259.72;;;24.82;30.29
13478;BME280;12598;62.382;17.344;2022-10-03T13:48:03;101242.75;;;24.65;30.51
13478;BME280;12598;62.382;17.344;2022-10-03T13:49:17;101241.72;;;24.66;30.33
13478;BME280;12598;62.382;17.344;2022-10-03T13:56:11;101194.84;;;24.51;30.45
13478;BME280;12598;62.382;17.344;2022-10-03T13:57:18;101198.41;;;24.44;30.09
13478;BME280;12598;62.382;17.344;2022-10-03T14:01:10;101252.84;;;24.71;30.11
13478;BME280;12598;62.382;17.344;2022-10-03T14:04:15;101274.34;;;24.95;30.61
13478;BME280;12598;62.382;17.344;2022-10-03T14:07:34;101275.19;;;24.96;30.00
13478;BME280;12598;62.382;17.344;2022-10-03T14:09:35;101229.06;;;24.67;29.99
13478;BME280;12598;62.382;17.344;2022-10-03T14:12:07;101271.66;;;24.95;30.13
13478;BME280;12598;62.382;17.344;2022-10-03T14:17:21;101265.13;;;24.82;30.64
13478;BME280;12598;62.382;17.344;2022-10-03T14:18:41;101258.75;;;24.75;30.15
13478;BME280;12598;62.382;17.344;2022-10-03T14:19:55;101268.81;;;24.89;30.67
13478;BME280;12598;62.382;17.344;2022-10-03T14:21:23;101272.16;;;24.91;30.01
13478;BME280;12598;62.382;17.344;2022-10-03T14:22:39;101237.66;;;24.70;30.28
13478;BME280;12598;62.382;17.344;2022-10-03T14:30:33;101241.91;;;24.65;30.70
13478;BME280;12598;62.382;17.344;2022-10-03T14:33:05;101255.75;;;24.70;30.39
13478;BME280;12598;62.382;17.344;2022-10-03T14:36:09;101284.31;;;24.95;30.52
13478;BME280;12598;62.382;17.344;2022-10-03T14:41:11;101252.38;;;24.68;30.44
13478;BME280;12598;62.382;17.344;2022-10-03T14:43:44;101293.16;;;24.89;30.42
13478;BME280;12598;62.382;17.344;2022-10-03T14:44:58;101260.81;;;24.73;30.24
13478;BME280;12598;62.382;17.344;2022-10-03T14:46:04;101260.81;;;24.73;30.42
13478;BME280;12598;62.382;17.344;2022-10-03T14:47:12;101252.72;;;24.65;30.36
13478;BME280;12598;62.382;17.344;2022-10-03T14:49:31;101217.34;;;24.44;30.37
13478;BME280;12598;62.382;17.344;2022-10-03T14:52:25;101256.88;;;24.75;30.69
13478;BME280;12598;62.382;17.344;2022-10-03T14:53:29;101255.69;;;24.78;30.52
13478;BME280;12598;62.382;17.344;2022-10-03T14:54:31;101298.19;;;24.92;30.43
13478;BME280;12598;62.382;17.344;2022-10-03T14:55:44;101168.50;;;24.15;30.71
13478;BME280;12598;62.382;17.344;2022-10-03T14:56:48;101158.72;;;24.14;30.23
13478;BME280;12598;62.382;17.344;2022-10-03T14:57:55;101259.13;;;24.72;30.67
13478;BME280;12598;62.382;17.344;2022-10-03T14:59:18;101246.63;;;24.71;30.62
13478;BME280;12598;62.382;17.344;2022-10-03T15:01:28;101299.59;;;24.88;30.21
13478;BME280;12598;62.382;17.344;2022-10-03T15:02:34;101171.88;;;24.17;30.53
13478;BME280;12598;62.382;17.344;2022-10-03T15:03:42;101290.38;;;24.97;30.30
13478;BME280;12598;62.382;17.344;2022-10-03T15:04:46;101249.63;;;24.76;30.33
13478;BME280;12598;62.382;17.344;2022-10-03T15:05:57;101290.59;;;24.95;30.26
13478;BME280;12598;62.382;17.344;2022-10-03T15:07:00;101239.53;;;24.70;30.15
13478;BME280;12598;62.382;17.344;2022-10-03T15:08:12;101263.97;;;24.76;30.47
13478;BME280;12598;62.382;17.344;2022-10-03T15:09:22;101295.44;;;25.00;30.25
13478;BME280;12598;62.382;17.344;2022-10-03T15:10:26;101287.69;;;24.97;30.40
13478;BME280;12598;62.382;17.344;2022-10-03T15:11:34;101261.78;;;24.80;30.51
13478;BME280;12598;62.382;17.344;2022-10-03T15:12:40;101262.44;;;24.82;30.23
13478;BME280;12598;62.382;17.344;2022-10-03T15:13:50;101263.44;;;24.81;30.42
13478;BME280;12598;62.382;17.344;2022-10-03T15:14:58;101246.28;;;24.66;30.20
13478;BME280;12598;62.382;17.344;2022-10-03T15:16:01;101261.94;;;24.78;30.40
13478;BME280;12598;62.382;17.344;2022-10-03T15:17:14;101305.91;;;25.03;30.44
13478;BME280;12598;62.382;17.344;2022-10-03T15:18:20;101292.44;;;24.95;30.22
13478;BME280;12598;62.382;17.344;2022-10-03T15:19:36;101275.22;;;24.88;30.26
13478;BME280;12598;62.382;17.344;2022-10-03T15:20:41;101307.06;;;25.08;29.92
13478;BME280;12598;62.382;17.344;2022-10-03T15:21:45;101309.94;;;25.07;30.39
13478;BME280;12598;62.382;17.344;2022-10-03T15:22:51;101243.47;;;24.59;30.35
13478;BME280;12598;62.382;17.344;2022-10-03T15:23:58;101309.28;;;25.05;30.38
13478;BME280;12598;62.382;17.344;2022-10-03T15:26:19;101266.16;;;24.81;30.32
13478;BME280;12598;62.382;17.344;2022-10-03T15:27:23;101232.16;;;24.56;30.37
13478;BME280;12598;62.382;17.344;2022-10-03T15:28:33;101281.31;;;24.90;30.41
13478;BME280;12598;62.382;17.344;2022-10-03T15:29:37;101307.94;;;25.01;30.27
13478;BME280;12598;62.382;17.344;2022-10-03T15:30:41;101289.06;;;24.93;30.21
13478;BME280;12598;62.382;17.344;2022-10-03T15:31:45;101191.72;;;24.32;30.32
13478;BME280;12598;62.382;17.344;2022-10-03T15:32:51;101310.78;;;25.07;30.21
13478;BME280;12598;62.382;17.344;2022-10-03T15:33:53;101287.75;;;24.89;30.41
13478;BME280;12598;62.382;17.344;2022-10-03T15:34:59;101184.81;;;24.29;30.18
13478;BME280;12598;62.382;17.344;2022-10-03T15:36:11;101269.38;;;24.76;30.30
13478;BME280;12598;62.382;17.344;2022-10-03T15:37:17;101259.78;;;24.74;30.50
13478;BME280;12598;62.382;17.344;2022-10-03T15:38:23;101314.38;;;25.00;30.20
13478;BME280;12598;62.382;17.344;2022-10-03T15:39:31;101279.31;;;24.84;30.13
13478;BME280;12598;62.382;17.344;2022-10-03T15:40:43;101236.84;;;24.62;30.03
13478;BME280;12598;62.382;17.344;2022-10-03T15:41:54;101316.50;;;25.12;30.38
13478;BME280;12598;62.382;17.344;2022-10-03T15:43:04;101226.09;;;24.46;29.95
13478;BME280;12598;62.382;17.344;2022-10-03T15:44:22;101248.78;;;24.75;30.01
13478;BME280;12598;62.382;17.344;2022-10-03T15:45:31;101270.69;;;24.88;29.93
13478;BME280;12598;62.382;17.344;2022-10-03T15:47:46;101219.50;;;24.56;30.23
13478;BME280;12598;62.382;17.344;2022-10-03T15:48:52;101322.78;;;25.13;29.88
13478;BME280;12598;62.382;17.344;2022-10-03T15:51:16;101295.94;;;25.03;30.07
13478;BME280;12598;62.382;17.344;2022-10-03T15:53:47;101280.06;;;25.00;30.18
13478;BME280;12598;62.382;17.344;2022-10-03T15:54:54;101282.81;;;24.92;29.89
13478;BME280;12598;62.382;17.344;2022-10-03T15:56:51;101314.63;;;25.21;29.74
13478;BME280;12598;62.382;17.344;2022-10-03T15:57:49;101233.19;;;24.77;30.13